LXJ952 KOMA-KBKL
Flight info
| Callsign | LXJ952 |
|---|---|
| Flight time | N/A |
| Altitude | 45000 |
| Route | DSM GIJ BENJO BRWNZ4 |
| Aircraft | C750/M-VGDW/C |
Departure
| Time | 2026-04-30 21:55 |
|---|---|
| Airport | Eppley Airfield (KOMA) |
Arrival
| Time | N/A |
|---|---|
| Airport | Burke Lakefront Airport (KBKL) |
| Time | Latitude | Longitude | Altitude | Speed | Heading |
|---|---|---|---|---|---|
| 2026-04-30 21:41 | 41.30313 | -95.88563 | 981 ft | 0 kts | 162° |
| 2026-04-30 21:51 | 41.30286 | -95.88565 | 985 ft | 10 kts | 209° |
| 2026-04-30 21:52 | 41.30272 | -95.88657 | 988 ft | 11 kts | 318° |
| 2026-04-30 21:52 | 41.30342 | -95.88726 | 983 ft | 13 kts | 314° |
| 2026-04-30 21:52 | 41.30296 | -95.88770 | 988 ft | 16 kts | 142° |
| 2026-04-30 21:52 | 41.30175 | -95.88655 | 981 ft | 24 kts | 144° |
| 2026-04-30 21:53 | 41.30023 | -95.88510 | 989 ft | 29 kts | 144° |
| 2026-04-30 21:53 | 41.29859 | -95.88355 | 986 ft | 28 kts | 144° |
| 2026-04-30 21:53 | 41.29706 | -95.88208 | 988 ft | 27 kts | 144° |
| 2026-04-30 21:53 | 41.29567 | -95.88096 | 985 ft | 19 kts | 187° |
| 2026-04-30 21:54 | 41.29488 | -95.88214 | 983 ft | 17 kts | 246° |
| 2026-04-30 21:54 | 41.29558 | -95.88336 | 983 ft | 26 kts | 324° |
| 2026-04-30 21:54 | 41.29879 | -95.88642 | 990 ft | 101 kts | 324° |
| 2026-04-30 21:54 | 41.30608 | -95.89334 | 1156 ft | 142 kts | 326° |
| 2026-04-30 21:55 | 41.31495 | -95.90073 | 1665 ft | 157 kts | 338° |
| 2026-04-30 21:55 | 41.32576 | -95.90161 | 2485 ft | 156 kts | 4° |
| 2026-04-30 21:55 | 41.33609 | -95.89678 | 3223 ft | 163 kts | 26° |
| 2026-04-30 21:55 | 41.34428 | -95.88591 | 3964 ft | 173 kts | 51° |
| 2026-04-30 21:56 | 41.34811 | -95.87029 | 4644 ft | 184 kts | 77° |
| 2026-04-30 21:56 | 41.34880 | -95.85300 | 5274 ft | 197 kts | 81° |
| 2026-04-30 21:56 | 41.34989 | -95.83353 | 5786 ft | 224 kts | 81° |
| 2026-04-30 21:56 | 41.35106 | -95.81170 | 6356 ft | 249 kts | 82° |
| 2026-04-30 21:57 | 41.35222 | -95.78757 | 6928 ft | 274 kts | 83° |
| 2026-04-30 21:57 | 41.35343 | -95.76181 | 7803 ft | 282 kts | 83° |
| 2026-04-30 21:57 | 41.35469 | -95.73539 | 8802 ft | 290 kts | 83° |
| 2026-04-30 21:57 | 41.35604 | -95.70820 | 9702 ft | 299 kts | 84° |
| 2026-04-30 21:58 | 41.35742 | -95.68007 | 10428 ft | 312 kts | 84° |
| 2026-04-30 21:58 | 41.35887 | -95.65019 | 10687 ft | 338 kts | 84° |
| 2026-04-30 21:58 | 41.36044 | -95.61770 | 10798 ft | 365 kts | 84° |
| 2026-04-30 21:58 | 41.36205 | -95.58335 | 11409 ft | 373 kts | 84° |
| 2026-04-30 21:59 | 41.36364 | -95.54876 | 12167 ft | 378 kts | 84° |
| 2026-04-30 21:59 | 41.36531 | -95.51358 | 12853 ft | 384 kts | 84° |
| 2026-04-30 21:59 | 41.36702 | -95.47776 | 13537 ft | 390 kts | 84° |
| 2026-04-30 22:00 | 41.37036 | -95.40527 | 14845 ft | 400 kts | 84° |
| 2026-04-30 22:00 | 41.37380 | -95.32998 | 16118 ft | 409 kts | 84° |
| 2026-04-30 22:00 | 41.37552 | -95.29193 | 16730 ft | 414 kts | 85° |
| 2026-04-30 22:01 | 41.37724 | -95.25340 | 17378 ft | 419 kts | 85° |
| 2026-04-30 22:01 | 41.37894 | -95.21493 | 18042 ft | 424 kts | 85° |
| 2026-04-30 22:01 | 41.38069 | -95.17547 | 18678 ft | 429 kts | 85° |
| 2026-04-30 22:01 | 41.38244 | -95.13554 | 19253 ft | 435 kts | 85° |
| 2026-04-30 22:02 | 41.38419 | -95.09509 | 19833 ft | 441 kts | 85° |
| 2026-04-30 22:02 | 41.38596 | -95.05405 | 20405 ft | 447 kts | 85° |
| 2026-04-30 22:02 | 41.38773 | -95.01253 | 21009 ft | 452 kts | 85° |
| 2026-04-30 22:02 | 41.38952 | -94.97043 | 21580 ft | 458 kts | 86° |
| 2026-04-30 22:03 | 41.39130 | -94.92788 | 22145 ft | 464 kts | 86° |
| 2026-04-30 22:03 | 41.39310 | -94.88471 | 22717 ft | 469 kts | 86° |
| 2026-04-30 22:03 | 41.39489 | -94.84106 | 23281 ft | 475 kts | 86° |
| 2026-04-30 22:03 | 41.39670 | -94.79688 | 23813 ft | 481 kts | 86° |
| 2026-04-30 22:04 | 41.39850 | -94.75221 | 24310 ft | 485 kts | 86° |
| 2026-04-30 22:04 | 41.40031 | -94.70720 | 24813 ft | 489 kts | 86° |
| 2026-04-30 22:04 | 41.40391 | -94.61595 | 25801 ft | 498 kts | 86° |
| 2026-04-30 22:05 | 41.40571 | -94.56954 | 26316 ft | 503 kts | 86° |
| 2026-04-30 22:05 | 41.40751 | -94.52286 | 26831 ft | 507 kts | 86° |
| 2026-04-30 22:05 | 41.40930 | -94.47580 | 27359 ft | 511 kts | 86° |
| 2026-04-30 22:05 | 41.41109 | -94.42821 | 27865 ft | 516 kts | 86° |
| 2026-04-30 22:06 | 41.41287 | -94.38034 | 28391 ft | 520 kts | 86° |
| 2026-04-30 22:06 | 41.41584 | -94.29967 | 29265 ft | 528 kts | 86° |
| 2026-04-30 22:06 | 41.41761 | -94.25062 | 29774 ft | 532 kts | 86° |
| 2026-04-30 22:07 | 41.41937 | -94.20121 | 30249 ft | 537 kts | 86° |
| 2026-04-30 22:07 | 41.42112 | -94.15134 | 30676 ft | 541 kts | 86° |
| 2026-04-30 22:07 | 41.42288 | -94.10112 | 31111 ft | 544 kts | 86° |
| 2026-04-30 22:07 | 41.42460 | -94.05083 | 31771 ft | 542 kts | 86° |
| 2026-04-30 22:08 | 41.42630 | -94.00072 | 32404 ft | 541 kts | 86° |
| 2026-04-30 22:08 | 41.42798 | -93.95072 | 33008 ft | 541 kts | 86° |
| 2026-04-30 22:08 | 41.42964 | -93.90063 | 33647 ft | 540 kts | 86° |
| 2026-04-30 22:08 | 41.43126 | -93.85072 | 34253 ft | 539 kts | 86° |
| 2026-04-30 22:09 | 41.43287 | -93.80079 | 34786 ft | 539 kts | 86° |
| 2026-04-30 22:09 | 41.43447 | -93.75098 | 35337 ft | 538 kts | 86° |
| 2026-04-30 22:09 | 41.43608 | -93.70121 | 35897 ft | 537 kts | 86° |
| 2026-04-30 22:09 | 41.43764 | -93.65167 | 36451 ft | 535 kts | 86° |
| 2026-04-30 22:10 | 41.44084 | -93.60221 | 36977 ft | 535 kts | 83° |
| 2026-04-30 22:10 | 41.44492 | -93.55309 | 37574 ft | 533 kts | 82° |
| 2026-04-30 22:10 | 41.44899 | -93.50398 | 38163 ft | 532 kts | 82° |
| 2026-04-30 22:10 | 41.45255 | -93.45493 | 38748 ft | 532 kts | 83° |
| 2026-04-30 22:11 | 41.45969 | -93.35698 | 39701 ft | 529 kts | 82° |
| 2026-04-30 22:11 | 41.46352 | -93.30821 | 40154 ft | 528 kts | 82° |
| 2026-04-30 22:11 | 41.46713 | -93.25952 | 40599 ft | 528 kts | 83° |
| 2026-04-30 22:12 | 41.47058 | -93.21085 | 41053 ft | 527 kts | 83° |
| 2026-04-30 22:12 | 41.47406 | -93.16296 | 41496 ft | 526 kts | 83° |
| 2026-04-30 22:12 | 41.47768 | -93.11445 | 41949 ft | 525 kts | 83° |
| 2026-04-30 22:12 | 41.48121 | -93.06601 | 42393 ft | 524 kts | 83° |
| 2026-04-30 22:13 | 41.48464 | -93.01763 | 42831 ft | 524 kts | 83° |
| 2026-04-30 22:13 | 41.48807 | -92.96933 | 43251 ft | 523 kts | 83° |
| 2026-04-30 22:13 | 41.49151 | -92.92118 | 43670 ft | 522 kts | 83° |
| 2026-04-30 22:13 | 41.49495 | -92.87291 | 44098 ft | 521 kts | 83° |
| 2026-04-30 22:14 | 41.49831 | -92.82491 | 44502 ft | 520 kts | 83° |
| 2026-04-30 22:14 | 41.50165 | -92.77687 | 44885 ft | 518 kts | 83° |
| 2026-04-30 22:14 | 41.50497 | -92.72909 | 45087 ft | 520 kts | 83° |
| 2026-04-30 22:15 | 41.51169 | -92.63156 | 45070 ft | 535 kts | 83° |
| 2026-04-30 22:15 | 41.51847 | -92.53154 | 45086 ft | 548 kts | 83° |
| 2026-04-30 22:16 | 41.52534 | -92.42907 | 45080 ft | 559 kts | 84° |
| 2026-04-30 22:17 | 41.53897 | -92.22121 | 45061 ft | 561 kts | 84° |
| 2026-04-30 22:17 | 41.54895 | -92.06534 | 45055 ft | 562 kts | 84° |
| 2026-04-30 22:18 | 41.55220 | -92.01379 | 45056 ft | 549 kts | 84° |
| 2026-04-30 22:18 | 41.55834 | -91.91518 | 45036 ft | 519 kts | 84° |
| 2026-04-30 22:19 | 41.56713 | -91.77241 | 45048 ft | 519 kts | 84° |
| 2026-04-30 22:20 | 41.57590 | -91.62649 | 45049 ft | 528 kts | 84° |
| 2026-04-30 22:20 | 41.58445 | -91.48109 | 45048 ft | 525 kts | 84° |
| 2026-04-30 22:21 | 41.59007 | -91.38394 | 45049 ft | 524 kts | 84° |
| 2026-04-30 22:21 | 41.59560 | -91.28679 | 45049 ft | 525 kts | 84° |
| 2026-04-30 22:22 | 41.60104 | -91.18962 | 45050 ft | 525 kts | 85° |
| 2026-04-30 22:22 | 41.60641 | -91.09242 | 45048 ft | 524 kts | 85° |
| 2026-04-30 22:23 | 41.61169 | -90.99531 | 45045 ft | 524 kts | 85° |
| 2026-04-30 22:23 | 41.61689 | -90.89818 | 45042 ft | 524 kts | 85° |
| 2026-04-30 22:24 | 41.62200 | -90.80117 | 45040 ft | 524 kts | 85° |
| 2026-04-30 22:24 | 41.62703 | -90.70415 | 45038 ft | 523 kts | 85° |
| 2026-04-30 22:25 | 41.63198 | -90.60714 | 45040 ft | 523 kts | 85° |
| 2026-04-30 22:25 | 41.63683 | -90.51024 | 45036 ft | 523 kts | 85° |
| 2026-04-30 22:26 | 41.64397 | -90.36480 | 45035 ft | 522 kts | 85° |
| 2026-04-30 22:27 | 41.64860 | -90.26848 | 45036 ft | 523 kts | 85° |
| 2026-04-30 22:27 | 41.65542 | -90.12300 | 45038 ft | 522 kts | 86° |
| 2026-04-30 22:28 | 41.66207 | -89.97761 | 45046 ft | 523 kts | 86° |
| 2026-04-30 22:29 | 41.67065 | -89.78357 | 45052 ft | 523 kts | 86° |
| 2026-04-30 22:31 | 41.68487 | -89.44397 | 45049 ft | 523 kts | 86° |
| 2026-04-30 22:32 | 41.69441 | -89.20125 | 45037 ft | 523 kts | 86° |
| 2026-04-30 22:33 | 41.70343 | -88.95913 | 45038 ft | 523 kts | 86° |
| 2026-04-30 22:35 | 41.71195 | -88.71635 | 45029 ft | 522 kts | 87° |
| 2026-04-30 22:36 | 41.71997 | -88.47354 | 45036 ft | 523 kts | 87° |
| 2026-04-30 22:37 | 41.72601 | -88.27910 | 45039 ft | 523 kts | 87° |
| 2026-04-30 22:38 | 41.73173 | -88.08474 | 45041 ft | 523 kts | 87° |
| 2026-04-30 22:39 | 41.73580 | -87.93892 | 45049 ft | 522 kts | 88° |
| 2026-04-30 22:40 | 41.74337 | -87.64823 | 45041 ft | 522 kts | 88° |
| 2026-04-30 22:41 | 41.74912 | -87.40559 | 45041 ft | 521 kts | 88° |
| 2026-04-30 22:43 | 41.75534 | -87.11489 | 45042 ft | 520 kts | 88° |
| 2026-04-30 22:44 | 41.75908 | -86.92134 | 45034 ft | 519 kts | 88° |
| 2026-04-30 22:45 | 41.76252 | -86.72579 | 45058 ft | 537 kts | 89° |
| 2026-04-30 22:45 | 41.76417 | -86.62461 | 45063 ft | 549 kts | 89° |
| 2026-04-30 22:47 | 41.76919 | -86.31481 | 45015 ft | 553 kts | 85° |
| 2026-04-30 22:48 | 41.79145 | -86.11180 | 45026 ft | 553 kts | 82° |
| 2026-04-30 22:49 | 41.82393 | -85.80620 | 45041 ft | 552 kts | 81° |
| 2026-04-30 22:51 | 41.85620 | -85.49936 | 45030 ft | 554 kts | 82° |
| 2026-04-30 22:52 | 41.87187 | -85.34576 | 45028 ft | 555 kts | 82° |
| 2026-04-30 22:53 | 41.89059 | -85.14048 | 45037 ft | 554 kts | 85° |
| 2026-04-30 22:53 | 41.90146 | -84.98597 | 45037 ft | 554 kts | 85° |
| 2026-04-30 22:55 | 41.91904 | -84.72844 | 45038 ft | 554 kts | 85° |
| 2026-04-30 22:56 | 41.93266 | -84.52284 | 45036 ft | 555 kts | 85° |
| 2026-04-30 22:57 | 41.94812 | -84.28240 | 43806 ft | 543 kts | 85° |
| 2026-04-30 22:57 | 41.95473 | -84.18294 | 42388 ft | 525 kts | 85° |
| 2026-04-30 22:58 | 41.96110 | -84.08729 | 41045 ft | 510 kts | 85° |
| 2026-04-30 22:59 | 41.97020 | -83.94682 | 39080 ft | 500 kts | 85° |
| 2026-04-30 22:59 | 41.97912 | -83.80620 | 37039 ft | 508 kts | 85° |